createdAt,value
2019-05-07T00:00:35.663Z,6.50
2019-05-07T00:01:35.648Z,5.70
2019-05-07T00:02:35.650Z,6.40
2019-05-07T00:03:35.667Z,4.20
2019-05-07T00:04:35.623Z,5.60
2019-05-07T00:05:35.593Z,3.70
2019-05-07T00:06:35.598Z,7.20
2019-05-07T00:07:35.619Z,3.20
2019-05-07T00:08:35.561Z,3.70
2019-05-07T00:09:35.551Z,4.20
2019-05-07T00:10:35.637Z,3.90
2019-05-07T00:11:35.551Z,3.70
2019-05-07T00:12:35.521Z,4.80
2019-05-07T00:13:35.547Z,4.20
2019-05-07T00:14:35.498Z,3.90
2019-05-07T00:15:35.481Z,4.10
2019-05-07T00:16:35.483Z,4.70
2019-05-07T00:17:35.508Z,5.10
2019-05-07T00:18:35.456Z,6.80
2019-05-07T00:19:35.488Z,4.80
2019-05-07T00:20:35.424Z,6.70
2019-05-07T00:21:35.423Z,6.30
2019-05-07T00:22:35.418Z,5.40
2019-05-07T00:23:35.402Z,5.70
2019-05-07T00:24:35.384Z,5.00
2019-05-07T00:25:35.394Z,4.60
2019-05-07T00:26:35.361Z,9.10
2019-05-07T00:27:35.348Z,4.50
2019-05-07T00:28:35.392Z,7.80
2019-05-07T00:29:35.334Z,4.90
2019-05-07T00:30:35.354Z,6.50
2019-05-07T00:31:35.359Z,5.30
2019-05-07T00:32:35.300Z,6.40
2019-05-07T00:33:35.290Z,5.50
2019-05-07T00:34:35.281Z,5.60
2019-05-07T00:35:35.257Z,7.20
2019-05-07T00:36:35.303Z,8.60
2019-05-07T00:37:35.274Z,4.20
2019-05-07T00:38:35.229Z,3.80
2019-05-07T00:39:35.219Z,4.10
2019-05-07T00:40:35.217Z,5.30
2019-05-07T00:41:35.224Z,4.80
2019-05-07T00:42:35.207Z,5.00
2019-05-07T00:43:35.168Z,5.00
2019-05-07T00:44:35.164Z,4.30
2019-05-07T00:45:35.177Z,4.90
2019-05-07T00:46:35.155Z,4.20
2019-05-07T00:47:35.129Z,3.90
2019-05-07T00:48:35.128Z,4.50
2019-05-07T00:49:35.106Z,4.30
2019-05-07T00:50:35.096Z,5.20
2019-05-07T00:51:35.121Z,4.70
2019-05-07T00:52:35.085Z,4.60
2019-05-07T00:53:35.066Z,4.90
2019-05-07T00:54:35.043Z,5.40
2019-05-07T00:55:35.044Z,5.60
2019-05-07T00:56:35.031Z,5.40
2019-05-07T00:57:35.061Z,3.60
2019-05-07T00:58:35.021Z,4.70
2019-05-07T00:59:35.001Z,5.10
2019-05-07T01:00:34.972Z,5.20
2019-05-07T01:01:35.005Z,4.30
2019-05-07T01:02:34.965Z,4.80
2019-05-07T01:03:34.979Z,3.60
2019-05-07T01:04:34.963Z,4.30
2019-05-07T01:05:34.936Z,5.00
2019-05-07T01:06:34.920Z,4.80
2019-05-07T01:07:34.940Z,4.30
2019-05-07T01:08:34.900Z,3.80
2019-05-07T01:09:34.929Z,3.60
2019-05-07T01:10:34.882Z,4.80
2019-05-07T01:11:34.857Z,5.20
2019-05-07T01:12:34.849Z,5.10
2019-05-07T01:13:34.862Z,5.80
2019-05-07T01:14:34.832Z,3.70
2019-05-07T01:15:34.932Z,5.40
2019-05-07T01:16:34.808Z,4.80
2019-05-07T01:17:34.783Z,6.70
2019-05-07T01:18:34.838Z,6.00
2019-05-07T01:19:34.773Z,3.60
2019-05-07T01:20:34.748Z,5.50
2019-05-07T01:21:34.768Z,5.30
2019-05-07T01:22:34.792Z,8.30
2019-05-07T01:23:34.730Z,5.60
2019-05-07T01:24:34.719Z,4.50
2019-05-07T01:25:34.696Z,4.30
2019-05-07T01:26:34.752Z,4.60
2019-05-07T01:27:34.677Z,6.00
2019-05-07T01:28:34.675Z,5.80
2019-05-07T01:29:34.657Z,4.90
2019-05-07T01:30:34.637Z,5.80
2019-05-07T01:31:34.627Z,4.70
2019-05-07T01:32:34.647Z,6.00
2019-05-07T01:33:34.653Z,6.20
2019-05-07T01:34:34.591Z,4.80
2019-05-07T01:35:34.625Z,5.10
2019-05-07T01:36:34.572Z,4.90
2019-05-07T01:37:34.569Z,6.80
2019-05-07T01:38:34.562Z,3.20
2019-05-07T01:39:34.544Z,3.90
2019-05-07T01:40:34.535Z,6.60
2019-05-07T01:41:34.522Z,6.10
2019-05-07T01:42:36.573Z,4.10
2019-05-07T01:43:34.529Z,4.20
2019-05-07T01:44:34.483Z,6.00
2019-05-07T01:45:45.362Z,4.20
2019-05-07T01:46:34.468Z,5.30
2019-05-07T01:47:34.451Z,4.50
2019-05-07T01:48:34.470Z,5.00
2019-05-07T01:49:34.473Z,5.50
2019-05-07T01:50:34.408Z,5.80
2019-05-07T01:51:34.399Z,4.90
2019-05-07T01:52:34.408Z,6.50
2019-05-07T01:53:34.386Z,4.40
2019-05-07T01:54:34.386Z,4.30
2019-05-07T01:55:34.389Z,6.20
2019-05-07T01:56:34.350Z,5.00
2019-05-07T01:57:34.331Z,8.40
2019-05-07T01:58:34.333Z,4.50
2019-05-07T01:59:34.317Z,4.80
2019-05-07T02:00:34.393Z,4.70
2019-05-07T02:01:35.829Z,4.90
2019-05-07T02:02:34.267Z,4.80
2019-05-07T02:03:34.269Z,4.90
2019-05-07T02:04:34.326Z,3.70
2019-05-07T02:05:34.255Z,4.80
2019-05-07T02:06:34.249Z,4.80
2019-05-07T02:07:34.295Z,6.50
2019-05-07T02:08:34.208Z,5.10
2019-05-07T02:09:34.216Z,4.60
2019-05-07T02:10:34.214Z,5.70
2019-05-07T02:11:34.204Z,4.60
2019-05-07T02:12:34.171Z,4.70
2019-05-07T02:13:34.154Z,6.20
2019-05-07T02:14:34.215Z,6.10
2019-05-07T02:15:34.170Z,5.60
2019-05-07T02:16:34.221Z,5.80
2019-05-07T02:17:34.146Z,4.40
2019-05-07T02:18:34.093Z,5.20
2019-05-07T02:19:34.091Z,4.10
2019-05-07T02:20:34.130Z,5.10
2019-05-07T02:21:34.077Z,3.90
2019-05-07T02:22:34.094Z,4.60
2019-05-07T02:23:34.059Z,7.80
2019-05-07T02:24:34.130Z,6.10
2019-05-07T02:25:34.091Z,5.60
2019-05-07T02:26:34.017Z,4.00
2019-05-07T02:27:34.010Z,4.40
2019-05-07T02:28:34.024Z,4.90
2019-05-07T02:29:33.974Z,4.10
2019-05-07T02:30:35.268Z,3.70
2019-05-07T02:31:34.077Z,6.00
2019-05-07T02:32:34.023Z,4.20
2019-05-07T02:33:35.041Z,6.70
2019-05-07T02:34:34.535Z,5.60
2019-05-07T02:35:33.946Z,4.50
2019-05-07T02:36:34.261Z,4.40
2019-05-07T02:37:47.031Z,6.50
2019-05-07T02:38:34.910Z,5.70
2019-05-07T02:39:33.873Z,5.00
2019-05-07T02:40:34.201Z,4.60
2019-05-07T02:41:33.842Z,5.40
2019-05-07T02:42:33.896Z,5.20
2019-05-07T02:43:34.031Z,6.00
2019-05-07T02:44:34.570Z,5.20
2019-05-07T02:45:33.917Z,5.00
2019-05-07T02:46:36.373Z,9.70
2019-05-07T02:47:34.434Z,6.40
2019-05-07T02:48:33.813Z,5.70
2019-05-07T02:49:33.750Z,6.50
2019-05-07T02:50:33.765Z,4.50
2019-05-07T02:51:33.848Z,7.30
2019-05-07T02:52:33.708Z,6.90
2019-05-07T02:53:34.009Z,6.90
2019-05-07T02:54:33.700Z,5.90
2019-05-07T02:55:33.896Z,5.90
2019-05-07T02:56:33.744Z,6.00
2019-05-07T02:57:34.326Z,7.00
2019-05-07T02:58:33.668Z,5.80
2019-05-07T02:59:33.946Z,6.30
2019-05-07T03:00:33.787Z,4.90
2019-05-07T03:01:34.417Z,5.40
2019-05-07T03:02:33.607Z,5.60
2019-05-07T03:03:33.808Z,5.70
2019-05-07T03:04:33.582Z,5.60
2019-05-07T03:05:34.998Z,5.00
2019-05-07T03:06:34.126Z,6.20
2019-05-07T03:07:33.880Z,6.10
2019-05-07T03:08:33.592Z,5.60
2019-05-07T03:09:33.544Z,4.10
2019-05-07T03:10:34.196Z,5.20
2019-05-07T03:11:34.182Z,5.40
2019-05-07T03:12:33.764Z,5.50
2019-05-07T03:13:33.936Z,6.60
2019-05-07T03:14:33.482Z,6.10
2019-05-07T03:15:33.727Z,6.00
2019-05-07T03:16:43.256Z,6.30
2019-05-07T03:17:34.461Z,5.60
2019-05-07T03:18:33.884Z,7.00
2019-05-07T03:19:33.421Z,6.80
2019-05-07T03:20:33.577Z,7.60
2019-05-07T03:21:33.388Z,8.50
2019-05-07T03:22:33.922Z,4.90
2019-05-07T03:23:34.196Z,9.40
2019-05-07T03:24:34.287Z,5.00
2019-05-07T03:25:33.971Z,5.70
2019-05-07T03:26:34.109Z,6.60
2019-05-07T03:27:34.225Z,9.00
2019-05-07T03:28:33.689Z,7.10
2019-05-07T03:29:33.651Z,5.40
2019-05-07T03:30:35.964Z,5.00
2019-05-07T03:31:36.311Z,5.70
2019-05-07T03:32:38.372Z,9.90
2019-05-07T03:33:36.647Z,5.10
2019-05-07T03:34:36.822Z,7.40
2019-05-07T03:35:37.063Z,5.70
2019-05-07T03:36:35.458Z,5.70
2019-05-07T03:37:36.377Z,7.30
2019-05-07T03:38:33.690Z,7.60
2019-05-07T03:39:33.838Z,5.90
2019-05-07T03:40:33.186Z,12.10
2019-05-07T03:41:33.415Z,6.60
2019-05-07T03:42:33.768Z,5.10
2019-05-07T03:43:33.149Z,5.70
2019-05-07T03:44:33.839Z,7.10
2019-05-07T03:45:33.591Z,6.70
2019-05-07T03:46:33.685Z,8.80
2019-05-07T03:47:33.351Z,6.90
2019-05-07T03:48:33.501Z,7.90
2019-05-07T03:49:34.162Z,8.00
2019-05-07T03:50:33.788Z,10.20
2019-05-07T03:51:33.079Z,10.20
2019-05-07T03:52:33.676Z,9.40
2019-05-07T03:53:33.823Z,10.90
2019-05-07T03:54:34.010Z,5.00
2019-05-07T03:55:33.393Z,6.50
2019-05-07T03:56:33.121Z,8.90
2019-05-07T03:57:33.577Z,6.00
2019-05-07T03:58:33.917Z,7.20
2019-05-07T03:59:34.299Z,8.50
2019-05-07T04:00:33.440Z,5.80
2019-05-07T04:01:33.548Z,10.20
2019-05-07T04:02:33.401Z,11.00
2019-05-07T04:03:34.115Z,6.00
2019-05-07T04:04:33.386Z,6.50
2019-05-07T04:05:34.170Z,13.60
2019-05-07T04:06:33.310Z,11.60
2019-05-07T04:07:33.623Z,6.50
2019-05-07T04:08:33.612Z,7.00
2019-05-07T04:09:33.486Z,11.60
2019-05-07T04:10:33.734Z,6.60
2019-05-07T04:11:33.684Z,7.70
2019-05-07T04:12:34.272Z,6.50
2019-05-07T04:13:33.616Z,6.10
2019-05-07T04:14:34.391Z,6.60
2019-05-07T04:15:33.211Z,5.90
2019-05-07T04:16:33.322Z,7.00
2019-05-07T04:17:33.812Z,9.00
2019-05-07T04:18:33.197Z,11.80
2019-05-07T04:19:33.113Z,8.20
2019-05-07T04:20:33.567Z,7.40
2019-05-07T04:21:34.455Z,8.70
2019-05-07T04:22:34.553Z,11.00
2019-05-07T04:23:34.124Z,15.30
2019-05-07T04:24:33.458Z,7.00
2019-05-07T04:25:34.679Z,11.60
2019-05-07T04:26:33.942Z,7.80
2019-05-07T04:27:33.385Z,12.80
2019-05-07T04:28:33.523Z,9.00
2019-05-07T04:29:35.125Z,7.10
2019-05-07T04:30:33.144Z,9.00
2019-05-07T04:31:34.200Z,13.60
2019-05-07T04:32:33.433Z,8.10
2019-05-07T04:33:33.525Z,8.90
2019-05-07T04:34:33.711Z,8.00
2019-05-07T04:35:33.505Z,6.40
2019-05-07T04:36:34.187Z,11.80
2019-05-07T04:37:33.183Z,8.60
2019-05-07T04:38:33.395Z,7.70
2019-05-07T04:39:33.487Z,8.80
2019-05-07T04:40:33.830Z,10.80
2019-05-07T04:41:33.083Z,8.60
2019-05-07T04:42:33.382Z,9.50
2019-05-07T04:43:33.603Z,12.30
2019-05-07T04:44:33.231Z,11.50
2019-05-07T04:45:33.858Z,10.20
2019-05-07T04:46:33.395Z,8.00
2019-05-07T04:47:41.541Z,10.50
2019-05-07T04:48:34.159Z,8.60
2019-05-07T04:49:33.173Z,8.60
2019-05-07T04:50:42.079Z,11.10
2019-05-07T04:51:33.663Z,14.00
2019-05-07T04:52:33.617Z,10.90
2019-05-07T04:53:32.917Z,11.10
2019-05-07T04:54:32.921Z,11.90
2019-05-07T04:55:33.436Z,11.50
2019-05-07T04:56:33.598Z,10.40
2019-05-07T04:57:32.980Z,11.10
2019-05-07T04:58:33.866Z,13.30
2019-05-07T04:59:32.998Z,16.20
2019-05-07T05:00:33.553Z,11.40
2019-05-07T05:01:32.938Z,10.70
2019-05-07T05:02:32.597Z,12.10
2019-05-07T05:03:34.626Z,10.80
2019-05-07T05:04:34.931Z,12.50
2019-05-07T05:05:32.960Z,10.70
2019-05-07T05:06:32.941Z,14.00
2019-05-07T05:07:33.493Z,13.00
2019-05-07T05:08:32.696Z,14.70
2019-05-07T05:09:32.908Z,11.00
2019-05-07T05:10:33.720Z,13.00
2019-05-07T05:11:33.626Z,11.60
2019-05-07T05:12:32.748Z,13.30
2019-05-07T05:13:32.959Z,8.90
2019-05-07T05:14:33.873Z,12.40
2019-05-07T05:15:32.253Z,13.40
2019-05-07T05:16:32.727Z,13.70
2019-05-07T05:17:32.183Z,13.00
2019-05-07T05:18:33.006Z,12.80
2019-05-07T05:19:32.401Z,12.20
2019-05-07T05:20:33.624Z,17.00
2019-05-07T05:21:32.322Z,10.00
2019-05-07T05:22:32.038Z,13.40
2019-05-07T05:23:32.334Z,16.10
2019-05-07T05:24:32.952Z,16.70
2019-05-07T05:25:32.351Z,10.80
2019-05-07T05:26:32.596Z,13.30
2019-05-07T05:27:32.677Z,9.10
2019-05-07T05:28:32.425Z,9.70
2019-05-07T05:29:32.348Z,10.30
2019-05-07T05:30:32.678Z,12.10
2019-05-07T05:31:33.075Z,14.30
2019-05-07T05:32:32.479Z,11.00
2019-05-07T05:33:32.457Z,10.60
2019-05-07T05:34:32.907Z,11.10
2019-05-07T05:35:32.193Z,11.20
2019-05-07T05:36:32.977Z,12.20
2019-05-07T05:37:32.194Z,13.90
2019-05-07T05:38:32.865Z,12.80
2019-05-07T05:39:32.126Z,10.80
2019-05-07T05:40:32.059Z,13.30
2019-05-07T05:41:33.800Z,11.40
2019-05-07T05:42:33.013Z,11.00
2019-05-07T05:43:32.087Z,10.30
2019-05-07T05:44:32.171Z,11.60
2019-05-07T05:45:33.489Z,11.00
2019-05-07T05:46:32.016Z,13.30
2019-05-07T05:47:33.010Z,14.40
2019-05-07T05:48:33.290Z,15.30
2019-05-07T05:49:32.273Z,22.70
2019-05-07T05:50:33.136Z,13.30
2019-05-07T05:51:32.324Z,23.90
2019-05-07T05:52:32.853Z,11.40
2019-05-07T05:53:32.717Z,9.60
2019-05-07T05:54:31.951Z,12.20
2019-05-07T05:55:32.202Z,13.00
2019-05-07T05:56:32.399Z,18.50
2019-05-07T05:57:32.267Z,22.90
2019-05-07T05:58:32.531Z,14.00
2019-05-07T05:59:46.891Z,13.70
2019-05-07T06:00:32.851Z,11.60
2019-05-07T06:01:32.139Z,11.30
2019-05-07T06:02:32.371Z,10.40
2019-05-07T06:03:32.205Z,13.00
2019-05-07T06:04:32.863Z,13.60
2019-05-07T06:05:34.392Z,11.80
2019-05-07T06:06:32.696Z,11.30
2019-05-07T06:07:31.991Z,9.40
2019-05-07T06:08:32.529Z,12.90
2019-05-07T06:09:32.794Z,10.80
2019-05-07T06:10:33.032Z,9.20
2019-05-07T06:11:32.192Z,12.90
2019-05-07T06:12:32.803Z,11.00
2019-05-07T06:13:32.343Z,12.10
2019-05-07T06:14:33.013Z,11.90
2019-05-07T06:15:32.729Z,12.50
2019-05-07T06:16:32.883Z,10.20
2019-05-07T06:17:32.113Z,11.50
2019-05-07T06:18:32.735Z,10.90
2019-05-07T06:19:32.780Z,9.30
2019-05-07T06:20:32.114Z,10.20
2019-05-07T06:21:32.305Z,11.10
2019-05-07T06:22:33.048Z,10.80
2019-05-07T06:23:32.951Z,12.60
2019-05-07T06:24:31.844Z,10.60
2019-05-07T06:25:33.445Z,10.40
2019-05-07T06:26:31.889Z,12.50
2019-05-07T06:27:32.492Z,10.30
2019-05-07T06:28:33.014Z,9.90
2019-05-07T06:29:33.011Z,10.40
2019-05-07T06:30:33.713Z,12.00
2019-05-07T06:31:32.674Z,10.90
2019-05-07T06:32:32.033Z,10.80
2019-05-07T06:33:32.435Z,12.10
2019-05-07T06:34:31.218Z,11.50
2019-05-07T06:35:32.430Z,11.80
2019-05-07T06:36:32.876Z,10.80
2019-05-07T06:37:32.169Z,11.50
2019-05-07T06:38:32.104Z,10.40
2019-05-07T06:39:32.775Z,13.30
2019-05-07T06:40:32.158Z,12.40
2019-05-07T06:41:32.251Z,13.00
2019-05-07T06:42:33.147Z,12.50
2019-05-07T06:43:32.522Z,12.30
2019-05-07T06:44:31.986Z,11.00
2019-05-07T06:45:34.735Z,12.10
2019-05-07T06:46:32.316Z,12.10
2019-05-07T06:47:31.931Z,10.10
2019-05-07T06:48:41.336Z,12.80
2019-05-07T06:49:32.517Z,12.00
2019-05-07T06:50:32.750Z,12.30
2019-05-07T06:51:32.795Z,12.10
2019-05-07T06:52:31.994Z,13.40
2019-05-07T06:53:33.369Z,10.70
2019-05-07T06:54:32.100Z,10.10
2019-05-07T06:55:32.393Z,11.90
2019-05-07T06:56:32.546Z,14.60
2019-05-07T06:57:32.967Z,10.20
2019-05-07T06:58:32.703Z,13.40
2019-05-07T06:59:34.291Z,12.10
2019-05-07T07:00:31.896Z,13.50
2019-05-07T07:01:32.324Z,11.00
2019-05-07T07:02:32.834Z,13.00
2019-05-07T07:03:32.742Z,12.30
2019-05-07T07:04:32.590Z,10.80
2019-05-07T07:05:32.849Z,11.50
2019-05-07T07:06:32.226Z,11.50
2019-05-07T07:07:34.727Z,12.10
2019-05-07T07:08:32.547Z,13.10
2019-05-07T07:09:32.784Z,16.90
2019-05-07T07:10:32.268Z,12.50
2019-05-07T07:11:31.908Z,13.20
2019-05-07T07:12:32.936Z,14.70
2019-05-07T07:13:32.178Z,11.70
2019-05-07T07:14:32.969Z,13.00
2019-05-07T07:15:32.051Z,12.50
2019-05-07T07:16:32.594Z,10.60
2019-05-07T07:17:32.597Z,10.70
2019-05-07T07:18:32.371Z,10.60
2019-05-07T07:19:32.180Z,11.50
2019-05-07T07:20:32.637Z,13.70
2019-05-07T07:21:32.666Z,17.70
2019-05-07T07:22:31.920Z,13.60
2019-05-07T07:23:32.363Z,11.40
2019-05-07T07:24:32.763Z,10.60
2019-05-07T07:25:32.546Z,12.00
2019-05-07T07:26:32.713Z,12.10
2019-05-07T07:27:32.203Z,9.40
2019-05-07T07:28:32.716Z,11.60
2019-05-07T07:29:32.466Z,11.90
2019-05-07T07:30:32.559Z,12.40
2019-05-07T07:31:31.872Z,12.20
2019-05-07T07:32:31.757Z,11.80
2019-05-07T07:33:31.997Z,12.80
2019-05-07T07:34:33.060Z,11.70
2019-05-07T07:35:32.149Z,12.30
2019-05-07T07:36:32.014Z,12.60
2019-05-07T07:37:31.987Z,13.50
2019-05-07T07:38:32.690Z,13.00
2019-05-07T07:39:32.275Z,12.00
2019-05-07T07:40:32.615Z,12.90
2019-05-07T07:41:32.526Z,13.50
2019-05-07T07:42:31.982Z,11.40
2019-05-07T07:43:32.382Z,12.60
2019-05-07T07:44:30.412Z,13.90
2019-05-07T07:45:32.449Z,14.30
2019-05-07T07:46:32.840Z,13.50
2019-05-07T07:47:32.759Z,11.90
2019-05-07T07:48:32.053Z,13.20
2019-05-07T07:49:32.322Z,11.80
2019-05-07T07:50:32.371Z,13.00
2019-05-07T07:51:38.670Z,13.50
2019-05-07T07:52:32.403Z,13.30
2019-05-07T07:53:33.150Z,13.90
2019-05-07T07:54:32.066Z,16.20
2019-05-07T07:55:30.297Z,14.70
2019-05-07T07:56:47.569Z,15.80
2019-05-07T07:57:32.432Z,14.00
2019-05-07T07:58:32.202Z,13.30
2019-05-07T07:59:30.246Z,12.00
2019-05-07T08:00:32.789Z,14.20
2019-05-07T08:01:30.225Z,14.60
2019-05-07T08:02:32.220Z,14.20
2019-05-07T08:03:30.255Z,13.90
2019-05-07T08:04:31.984Z,13.80
2019-05-07T08:05:32.424Z,13.60
2019-05-07T08:06:30.158Z,15.10
2019-05-07T08:07:30.146Z,13.20
2019-05-07T08:08:31.964Z,14.90
2019-05-07T08:09:32.313Z,14.20
2019-05-07T08:10:32.397Z,14.00
2019-05-07T08:11:31.954Z,13.70
2019-05-07T08:12:32.344Z,12.40
2019-05-07T08:13:32.346Z,14.60
2019-05-07T08:14:32.310Z,13.30
2019-05-07T08:15:32.843Z,14.10
2019-05-07T08:16:30.049Z,14.50
2019-05-07T08:17:30.042Z,14.70
2019-05-07T08:18:30.122Z,14.00
2019-05-07T08:19:32.522Z,11.80
2019-05-07T08:20:30.030Z,11.40
2019-05-07T08:21:29.997Z,12.30
2019-05-07T08:22:29.988Z,13.90
2019-05-07T08:23:31.973Z,12.70
2019-05-07T08:24:32.046Z,13.20
2019-05-07T08:25:32.033Z,16.30
2019-05-07T08:26:32.196Z,12.10
2019-05-07T08:27:29.976Z,13.80
2019-05-07T08:28:31.941Z,13.40
2019-05-07T08:29:32.296Z,14.20
2019-05-07T08:30:29.888Z,13.50
2019-05-07T08:31:31.954Z,12.80
2019-05-07T08:32:29.882Z,12.40
2019-05-07T08:33:32.104Z,15.20
2019-05-07T08:34:29.867Z,12.70
2019-05-07T08:35:29.841Z,12.00
2019-05-07T08:36:29.839Z,13.30
2019-05-07T08:37:31.658Z,11.10
2019-05-07T08:38:30.790Z,14.70
2019-05-07T08:39:32.012Z,12.10
2019-05-07T08:40:29.778Z,12.30
2019-05-07T08:41:31.786Z,11.80
2019-05-07T08:42:31.916Z,10.80
2019-05-07T08:43:29.746Z,11.00
2019-05-07T08:44:29.793Z,12.90
2019-05-07T08:45:29.735Z,13.90
2019-05-07T08:46:29.788Z,16.10
2019-05-07T08:47:31.797Z,13.70
2019-05-07T08:48:31.959Z,12.40
2019-05-07T08:49:37.065Z,12.90
2019-05-07T08:50:32.579Z,13.10
2019-05-07T08:51:29.653Z,13.30
2019-05-07T08:52:29.647Z,13.00
2019-05-07T08:53:29.632Z,14.70
2019-05-07T08:54:31.966Z,17.00
2019-05-07T08:55:29.639Z,13.70
2019-05-07T08:56:31.763Z,14.70
2019-05-07T08:57:31.706Z,12.90
2019-05-07T08:58:31.612Z,13.70
2019-05-07T08:59:31.739Z,13.90
2019-05-07T09:00:29.559Z,13.70
2019-05-07T09:01:29.545Z,14.10
2019-05-07T09:02:29.539Z,14.40
2019-05-07T09:03:29.549Z,13.20
2019-05-07T09:04:29.497Z,13.10
2019-05-07T09:05:29.535Z,13.80
2019-05-07T09:06:29.504Z,13.80
2019-05-07T09:07:29.462Z,12.90
2019-05-07T09:08:29.455Z,15.30
2019-05-07T09:09:29.512Z,13.50
2019-05-07T09:10:29.468Z,14.30
2019-05-07T09:11:29.451Z,15.80
2019-05-07T09:12:31.697Z,14.10
2019-05-07T09:13:29.397Z,13.70
2019-05-07T09:14:29.392Z,13.60
2019-05-07T09:15:29.376Z,13.80
2019-05-07T09:16:29.365Z,15.30
2019-05-07T09:17:29.423Z,14.10
2019-05-07T09:18:29.361Z,13.70
2019-05-07T09:19:29.326Z,15.40
2019-05-07T09:20:29.332Z,14.50
2019-05-07T09:21:29.315Z,15.00
2019-05-07T09:22:29.308Z,12.10
2019-05-07T09:23:29.294Z,14.90
2019-05-07T09:24:29.310Z,14.90
2019-05-07T09:25:29.282Z,17.40
2019-05-07T09:26:29.249Z,17.00
2019-05-07T09:27:29.275Z,15.20
2019-05-07T09:28:29.231Z,15.30
2019-05-07T09:29:29.218Z,17.50
2019-05-07T09:30:29.213Z,19.60
2019-05-07T09:31:29.182Z,20.90
2019-05-07T09:32:29.183Z,16.00
2019-05-07T09:33:29.185Z,17.70
2019-05-07T09:34:29.161Z,16.70
2019-05-07T09:35:29.144Z,17.30
2019-05-07T09:36:29.137Z,16.20
2019-05-07T09:37:29.184Z,17.70
2019-05-07T09:38:29.126Z,16.40
2019-05-07T09:39:29.113Z,18.20
2019-05-07T09:40:29.107Z,15.10
2019-05-07T09:41:29.088Z,16.70
2019-05-07T09:42:29.069Z,15.60
2019-05-07T09:43:29.071Z,17.00
2019-05-07T09:44:29.095Z,15.50
2019-05-07T09:45:29.032Z,16.10
2019-05-07T09:46:29.021Z,15.20
2019-05-07T09:47:29.029Z,14.40
2019-05-07T09:48:29.006Z,14.10
2019-05-07T09:49:28.987Z,14.20
2019-05-07T09:50:28.990Z,17.00
2019-05-07T09:51:29.030Z,16.60
2019-05-07T09:52:28.983Z,17.20
2019-05-07T09:53:29.000Z,15.80
2019-05-07T09:54:28.929Z,15.50
2019-05-07T09:55:28.986Z,16.40
2019-05-07T09:56:28.910Z,16.00
2019-05-07T09:57:31.599Z,17.30
2019-05-07T09:58:36.636Z,15.40
2019-05-07T09:59:29.919Z,14.90
2019-05-07T10:00:28.860Z,15.80
2019-05-07T10:01:28.865Z,16.70
2019-05-07T10:02:28.841Z,16.40
2019-05-07T10:03:28.822Z,19.00
2019-05-07T10:04:28.829Z,16.40
2019-05-07T10:05:28.822Z,16.80
2019-05-07T10:06:28.849Z,17.00
2019-05-07T10:07:28.825Z,17.30
2019-05-07T10:08:28.763Z,16.00
2019-05-07T10:09:28.771Z,19.10
2019-05-07T10:10:28.752Z,17.00
2019-05-07T10:11:28.736Z,18.90
2019-05-07T10:12:28.745Z,19.50
2019-05-07T10:13:28.738Z,18.30
2019-05-07T10:14:28.738Z,17.80
2019-05-07T10:15:28.687Z,17.40
2019-05-07T10:16:28.676Z,17.50
2019-05-07T10:17:28.701Z,16.00
2019-05-07T10:18:28.659Z,14.70
2019-05-07T10:19:28.660Z,14.70
2019-05-07T10:20:28.643Z,16.30
2019-05-07T10:21:28.674Z,16.20
2019-05-07T10:22:28.629Z,17.00
2019-05-07T10:23:28.660Z,14.00
2019-05-07T10:24:28.607Z,14.40
2019-05-07T10:25:28.581Z,16.70
2019-05-07T10:26:28.579Z,14.60
2019-05-07T10:27:28.552Z,15.80
2019-05-07T10:28:28.581Z,14.30
2019-05-07T10:29:28.536Z,14.90
2019-05-07T10:30:28.561Z,16.30
2019-05-07T10:31:28.512Z,14.60
2019-05-07T10:32:28.489Z,15.70
2019-05-07T10:33:28.525Z,14.40
2019-05-07T10:34:28.507Z,16.30
2019-05-07T10:35:30.953Z,12.40
2019-05-07T10:36:28.452Z,14.40
2019-05-07T10:37:28.440Z,14.20
2019-05-07T10:38:28.439Z,13.90
2019-05-07T10:39:28.416Z,16.80
2019-05-07T10:40:28.449Z,16.40
2019-05-07T10:41:28.410Z,14.30
2019-05-07T10:42:28.387Z,15.20
2019-05-07T10:43:28.369Z,15.40
2019-05-07T10:44:28.366Z,15.60
2019-05-07T10:45:28.358Z,16.50
2019-05-07T10:46:28.333Z,15.50
2019-05-07T10:47:28.368Z,15.60
2019-05-07T10:48:28.315Z,16.20
2019-05-07T10:49:28.308Z,16.40
2019-05-07T10:50:37.964Z,15.00
2019-05-07T10:51:29.308Z,14.40
2019-05-07T10:52:28.272Z,15.60
2019-05-07T10:53:28.267Z,16.20
2019-05-07T10:54:28.244Z,13.80
2019-05-07T10:55:28.268Z,14.60
2019-05-07T10:56:28.231Z,12.70
2019-05-07T10:57:28.211Z,17.80
2019-05-07T10:58:28.274Z,14.30
2019-05-07T10:59:28.215Z,16.90
2019-05-07T11:00:28.193Z,14.30
2019-05-07T11:01:28.177Z,14.40
2019-05-07T11:02:28.208Z,14.90
2019-05-07T11:03:28.157Z,12.40
2019-05-07T11:04:39.315Z,14.60
2019-05-07T11:05:29.126Z,13.40
2019-05-07T11:06:28.175Z,15.60
2019-05-07T11:07:28.094Z,15.10
2019-05-07T11:08:28.091Z,15.50
2019-05-07T11:09:28.083Z,13.10
2019-05-07T11:10:28.058Z,15.40
2019-05-07T11:11:28.046Z,14.30
2019-05-07T11:12:28.064Z,15.30
2019-05-07T11:13:28.021Z,15.00
2019-05-07T11:14:28.034Z,12.50
2019-05-07T11:15:28.004Z,13.30
2019-05-07T11:16:28.022Z,15.70
2019-05-07T11:17:27.977Z,14.90
2019-05-07T11:18:27.982Z,14.30
2019-05-07T11:19:27.992Z,12.40
2019-05-07T11:20:27.968Z,13.10
2019-05-07T11:21:27.940Z,13.70
2019-05-07T11:22:27.936Z,11.50
2019-05-07T11:23:27.950Z,12.30
2019-05-07T11:24:27.910Z,11.50
2019-05-07T11:25:27.936Z,13.80
2019-05-07T11:26:27.887Z,12.70
2019-05-07T11:27:27.871Z,11.30
2019-05-07T11:28:27.880Z,14.50
2019-05-07T11:29:27.862Z,13.20
2019-05-07T11:30:27.838Z,12.60
2019-05-07T11:31:27.827Z,14.10
2019-05-07T11:32:27.824Z,14.30
2019-05-07T11:33:27.812Z,13.30
2019-05-07T11:34:27.825Z,13.40
2019-05-07T11:35:27.813Z,13.50
2019-05-07T11:36:27.778Z,15.10
2019-05-07T11:37:27.825Z,13.60
2019-05-07T11:38:27.766Z,16.10
2019-05-07T11:39:27.749Z,15.00
2019-05-07T11:40:27.754Z,13.80
2019-05-07T11:41:27.740Z,13.40
2019-05-07T11:42:27.704Z,13.50
2019-05-07T11:43:27.716Z,13.60
2019-05-07T11:44:27.696Z,13.80
2019-05-07T11:45:27.693Z,12.20
2019-05-07T11:46:27.671Z,13.10
2019-05-07T11:47:27.683Z,12.70
2019-05-07T11:48:27.649Z,11.90
2019-05-07T11:49:27.637Z,12.30
2019-05-07T11:50:27.694Z,11.90
2019-05-07T11:51:27.605Z,13.00
2019-05-07T11:52:27.599Z,12.50
2019-05-07T11:53:27.587Z,9.90
2019-05-07T11:54:27.699Z,11.30
2019-05-07T11:55:27.599Z,11.20
2019-05-07T11:56:27.567Z,9.70
2019-05-07T11:57:27.543Z,11.70
2019-05-07T11:58:27.528Z,9.80
2019-05-07T11:59:27.521Z,12.10
2019-05-07T12:00:27.531Z,9.20
2019-05-07T12:01:40.217Z,10.70
2019-05-07T12:02:28.483Z,8.90
2019-05-07T12:03:27.475Z,9.90
2019-05-07T12:04:27.999Z,11.20
2019-05-07T12:05:27.456Z,9.70
2019-05-07T12:06:27.454Z,11.90
2019-05-07T12:07:27.425Z,14.40
2019-05-07T12:08:41.007Z,13.50
2019-05-07T12:09:28.404Z,13.50
2019-05-07T12:10:27.425Z,12.90
2019-05-07T12:11:27.370Z,12.90
2019-05-07T12:12:27.415Z,14.30
2019-05-07T12:13:27.349Z,14.60
2019-05-07T12:14:31.788Z,13.60
2019-05-07T12:15:28.381Z,15.00
2019-05-07T12:16:27.332Z,13.30
2019-05-07T12:17:27.303Z,16.20
2019-05-07T12:18:27.308Z,14.70
2019-05-07T12:19:27.279Z,15.60
2019-05-07T12:20:27.387Z,15.20
2019-05-07T12:21:27.268Z,15.60
2019-05-07T12:22:27.254Z,14.50
2019-05-07T12:23:27.258Z,14.90
2019-05-07T12:24:27.227Z,17.10
2019-05-07T12:25:27.216Z,16.30
2019-05-07T12:26:27.199Z,14.70
2019-05-07T12:27:27.188Z,14.80
2019-05-07T12:28:27.201Z,13.30
2019-05-07T12:29:27.191Z,14.70
2019-05-07T12:30:27.163Z,16.60
2019-05-07T12:31:27.170Z,12.40
2019-05-07T12:32:27.134Z,13.90
2019-05-07T12:33:27.129Z,11.30
2019-05-07T12:34:27.147Z,13.80
2019-05-07T12:35:27.098Z,13.80
2019-05-07T12:36:27.088Z,13.90
2019-05-07T12:37:27.085Z,13.30
2019-05-07T12:38:27.131Z,13.30
2019-05-07T12:39:27.066Z,12.20
2019-05-07T12:40:27.098Z,11.90
2019-05-07T12:41:27.030Z,14.60
2019-05-07T12:42:27.028Z,11.80
2019-05-07T12:43:27.019Z,11.80
2019-05-07T12:44:27.002Z,11.50
2019-05-07T12:45:27.048Z,11.70
2019-05-07T12:46:26.984Z,12.90
2019-05-07T12:47:26.972Z,11.70
2019-05-07T12:48:26.977Z,12.10
2019-05-07T12:49:26.963Z,12.00
2019-05-07T12:50:26.966Z,13.10
2019-05-07T12:51:34.535Z,14.80
2019-05-07T12:52:26.907Z,15.90
2019-05-07T12:53:26.895Z,13.00
2019-05-07T12:54:26.894Z,11.70
2019-05-07T12:55:26.877Z,11.80
2019-05-07T12:56:26.915Z,14.30
2019-05-07T12:57:26.865Z,12.50
2019-05-07T12:58:26.834Z,13.90
2019-05-07T12:59:26.847Z,11.80
2019-05-07T13:00:26.834Z,12.00
2019-05-07T13:01:26.915Z,13.20